Vaerlose, Denmark
Current Conditions -  °F | °C
As of 11:20 AM on Wednesday 26 Nov 2014 (Local Time) from EKCH Reporting Station
Broken Clouds Broken Clouds  
Wind Chill: 41°   Ceiling: 2600
Heat Index: 45°   Visibility: 6mi
Dew Point: 39°   Wind: 7mph
Humidity: 81%   Direction: 70°ENE
Pressure: 30.3"   Gusts: NA
Location:  55.78°N, 12.37°E
Report Text: EKCH 261020Z 07006KT 9999 BKN026 07/04 Q1026 NOSIG
Loading
Personal Weather Stations






























Interactive Weather Map New forecast layout! Learn more

10-Day Weather Forecast

Advertisements
Track Severe Weather on mobile